createdAt,value
2022-08-18T00:01:11.885Z,77.39
2022-08-18T00:03:57.324Z,77.79
2022-08-18T00:06:31.389Z,78.80
2022-08-18T00:09:00.638Z,78.35
2022-08-18T00:11:41.058Z,78.57
2022-08-18T00:14:21.243Z,78.84
2022-08-18T00:16:53.411Z,79.06
2022-08-18T00:19:43.623Z,78.85
2022-08-18T00:22:14.674Z,77.88
2022-08-18T00:24:47.707Z,76.40
2022-08-18T00:27:19.544Z,77.32
2022-08-18T00:29:50.469Z,76.16
2022-08-18T00:32:23.553Z,76.00
2022-08-18T00:34:53.389Z,76.49
2022-08-18T00:37:22.842Z,75.88
2022-08-18T00:39:52.656Z,74.41
2022-08-18T00:42:29.087Z,74.26
2022-08-18T00:45:01.251Z,73.54
2022-08-18T00:47:41.034Z,74.69
2022-08-18T00:50:15.418Z,74.81
2022-08-18T00:52:48.818Z,74.36
2022-08-18T00:55:18.242Z,75.13
2022-08-18T00:57:50.807Z,75.49
2022-08-18T01:00:19.393Z,74.88
2022-08-18T01:02:54.333Z,75.28
2022-08-18T01:05:28.313Z,75.46
2022-08-18T01:07:56.346Z,75.37
2022-08-18T01:10:27.026Z,76.72
2022-08-18T01:12:57.909Z,75.88
2022-08-18T01:15:30.203Z,76.19
2022-08-18T01:18:18.121Z,76.94
2022-08-18T01:21:13.081Z,75.71
2022-08-18T01:23:42.497Z,75.57
2022-08-18T01:26:10.839Z,76.12
2022-08-18T01:28:41.869Z,77.29
2022-08-18T01:31:10.769Z,78.15
2022-08-18T01:33:42.379Z,78.95
2022-08-18T01:36:16.599Z,81.07
2022-08-18T01:38:47.873Z,83.39
2022-08-18T01:41:28.411Z,84.73
2022-08-18T01:43:58.464Z,86.45
2022-08-18T01:46:28.051Z,87.15
2022-08-18T01:48:58.555Z,87.34
2022-08-18T01:51:40.580Z,86.68
2022-08-18T01:54:12.495Z,86.36
2022-08-18T01:56:42.124Z,86.87
2022-08-18T01:59:15.106Z,88.85
2022-08-18T02:01:52.777Z,91.47
2022-08-18T02:04:41.126Z,91.40
2022-08-18T02:07:11.837Z,89.45
2022-08-18T02:09:43.235Z,87.93
2022-08-18T02:12:14.344Z,84.94
2022-08-18T02:14:42.401Z,83.23
2022-08-18T02:17:12.114Z,82.69
2022-08-18T02:19:42.478Z,83.70
2022-08-18T02:22:12.577Z,82.73
2022-08-18T02:24:42.126Z,86.04
2022-08-18T02:27:11.658Z,83.99
2022-08-18T02:29:39.555Z,83.06
2022-08-18T02:32:08.665Z,84.25
2022-08-18T02:34:38.833Z,83.33
2022-08-18T02:37:06.603Z,81.38
2022-08-18T02:39:37.912Z,80.66
2022-08-18T02:42:09.133Z,80.96
2022-08-18T02:44:37.211Z,79.94
2022-08-18T02:47:05.400Z,79.95
2022-08-18T02:49:33.224Z,80.24
2022-08-18T02:52:01.180Z,80.21
2022-08-18T02:54:29.201Z,80.39
2022-08-18T02:56:57.440Z,79.40
2022-08-18T02:59:28.493Z,79.50
2022-08-18T03:02:00.016Z,78.40
2022-08-18T03:04:30.917Z,78.61
2022-08-18T03:07:02.309Z,80.09
2022-08-18T03:09:30.770Z,80.12
2022-08-18T03:11:59.062Z,79.24
2022-08-18T03:14:29.151Z,79.29
2022-08-18T03:16:59.851Z,77.31
2022-08-18T03:19:29.666Z,77.79
2022-08-18T03:22:02.987Z,79.54
2022-08-18T03:24:32.960Z,80.81
2022-08-18T03:27:02.180Z,81.70
2022-08-18T03:29:32.997Z,79.77
2022-08-18T03:32:02.014Z,78.73
2022-08-18T03:34:30.507Z,78.16
2022-08-18T03:36:58.661Z,79.19
2022-08-18T03:39:29.468Z,77.74
2022-08-18T03:42:01.094Z,78.02
2022-08-18T03:44:33.437Z,78.29
2022-08-18T03:47:02.798Z,79.85
2022-08-18T03:49:31.503Z,78.74
2022-08-18T03:52:02.419Z,79.08
2022-08-18T03:54:33.650Z,82.14
2022-08-18T03:57:02.002Z,83.75
2022-08-18T03:59:33.356Z,84.81
2022-08-18T04:02:04.843Z,81.39
2022-08-18T04:04:32.675Z,79.79
2022-08-18T04:07:04.715Z,78.99
2022-08-18T04:09:34.511Z,80.11
2022-08-18T04:12:10.395Z,78.88
2022-08-18T04:14:48.054Z,77.92
2022-08-18T04:17:16.449Z,77.72
2022-08-18T04:19:44.348Z,78.67
2022-08-18T04:22:17.188Z,79.50
2022-08-18T04:24:45.650Z,80.07
2022-08-18T04:27:14.173Z,79.17
2022-08-18T04:29:45.418Z,78.56
2022-08-18T04:32:13.338Z,78.45
2022-08-18T04:34:41.310Z,78.96
2022-08-18T04:37:09.759Z,78.57
2022-08-18T04:39:38.231Z,78.18
2022-08-18T04:42:06.245Z,80.84
2022-08-18T04:44:34.655Z,83.51
2022-08-18T04:47:03.990Z,82.30
2022-08-18T04:49:34.010Z,80.46
2022-08-18T04:52:34.331Z,79.24
2022-08-18T04:55:08.232Z,80.15
2022-08-18T04:57:36.382Z,82.22
2022-08-18T05:00:06.900Z,82.29
2022-08-18T05:02:36.110Z,80.55
2022-08-18T05:05:04.647Z,79.72
2022-08-18T05:07:33.217Z,79.49
2022-08-18T05:10:01.118Z,79.56
2022-08-18T05:12:29.532Z,78.55
2022-08-18T05:14:57.886Z,78.61
2022-08-18T05:17:30.077Z,78.34
2022-08-18T05:20:01.691Z,78.06
2022-08-18T05:22:31.060Z,77.12
2022-08-18T05:25:00.325Z,76.89
2022-08-18T05:27:32.853Z,77.04
2022-08-18T05:30:00.760Z,75.42
2022-08-18T05:32:47.232Z,74.75
2022-08-18T05:35:24.341Z,74.58
2022-08-18T05:38:06.602Z,73.74
2022-08-18T05:40:36.251Z,73.43
2022-08-18T05:43:06.003Z,73.53
2022-08-18T05:45:34.722Z,74.40
2022-08-18T05:48:02.961Z,73.71
2022-08-18T05:50:36.452Z,73.19
2022-08-18T05:53:13.513Z,72.96
2022-08-18T05:56:05.555Z,73.97
2022-08-18T05:58:38.406Z,75.47
2022-08-18T06:01:13.157Z,76.60
2022-08-18T06:03:49.563Z,74.78
2022-08-18T06:06:24.155Z,73.54
2022-08-18T06:09:00.019Z,73.28
2022-08-18T06:11:28.307Z,72.30
2022-08-18T06:14:00.133Z,72.73
2022-08-18T06:16:49.554Z,72.46
2022-08-18T06:19:36.059Z,71.86
2022-08-18T06:22:17.468Z,70.75
2022-08-18T06:24:56.487Z,71.02
2022-08-18T06:27:40.972Z,71.42
2022-08-18T06:30:15.167Z,71.11
2022-08-18T06:33:18.256Z,70.38
2022-08-18T06:35:50.263Z,72.77
2022-08-18T06:38:39.684Z,72.18
2022-08-18T06:41:42.510Z,71.71
2022-08-18T06:44:05.773Z,70.36
2022-08-18T06:46:42.198Z,69.29
2022-08-18T06:49:12.971Z,70.03
2022-08-18T06:51:41.395Z,69.83
2022-08-18T06:54:29.345Z,71.78
2022-08-18T06:56:58.805Z,70.70
2022-08-18T06:59:29.462Z,68.58
2022-08-18T07:02:01.561Z,69.34
2022-08-18T07:04:37.474Z,70.70
2022-08-18T07:07:21.448Z,71.78
2022-08-18T07:09:50.760Z,70.89
2022-08-18T07:12:30.513Z,69.45
2022-08-18T07:15:02.494Z,70.05
2022-08-18T07:17:42.754Z,69.00
2022-08-18T07:20:21.856Z,68.52
2022-08-18T07:22:55.746Z,72.54
2022-08-18T07:25:28.726Z,69.79
2022-08-18T07:27:57.216Z,69.83
2022-08-18T07:30:32.407Z,68.98
2022-08-18T07:33:12.083Z,69.53
2022-08-18T07:35:46.508Z,71.06
2022-08-18T07:38:41.500Z,72.67
2022-08-18T07:41:16.042Z,70.80
2022-08-18T07:44:02.852Z,71.25
2022-08-18T07:46:37.672Z,70.76
2022-08-18T07:49:08.160Z,69.23
2022-08-18T07:51:47.779Z,70.09
2022-08-18T07:54:50.172Z,69.90
2022-08-18T07:57:35.408Z,68.87
2022-08-18T08:00:30.563Z,68.88
2022-08-18T08:03:22.315Z,68.55
2022-08-18T08:05:57.527Z,67.86
2022-08-18T08:08:31.501Z,67.75
2022-08-18T08:11:10.645Z,69.32
2022-08-18T08:13:56.227Z,68.26
2022-08-18T08:16:36.385Z,67.63
2022-08-18T08:19:15.771Z,67.69
2022-08-18T08:21:52.860Z,68.67
2022-08-18T08:24:30.012Z,69.40
2022-08-18T08:27:06.222Z,68.83
2022-08-18T08:29:46.198Z,74.37
2022-08-18T08:32:20.696Z,75.99
2022-08-18T08:34:52.913Z,75.49
2022-08-18T08:37:25.543Z,74.69
2022-08-18T08:39:58.999Z,71.49
2022-08-18T08:42:40.517Z,70.67
2022-08-18T08:45:15.077Z,73.42
2022-08-18T08:47:50.368Z,74.29
2022-08-18T08:50:24.023Z,71.29
2022-08-18T08:52:57.342Z,70.83
2022-08-18T08:55:28.307Z,71.97
2022-08-18T08:58:02.998Z,73.34
2022-08-18T09:00:33.420Z,73.44
2022-08-18T09:03:15.535Z,73.13
2022-08-18T09:05:56.643Z,74.31
2022-08-18T09:08:40.327Z,71.97
2022-08-18T09:11:28.363Z,73.60
2022-08-18T09:14:24.645Z,73.46
2022-08-18T09:17:12.562Z,72.14
2022-08-18T09:19:56.554Z,71.64
2022-08-18T09:22:37.707Z,71.54
2022-08-18T09:25:11.387Z,67.99
2022-08-18T09:28:09.293Z,71.79
2022-08-18T09:30:55.260Z,71.51
2022-08-18T09:33:35.617Z,70.66
2022-08-18T09:36:20.399Z,70.16
2022-08-18T09:39:10.222Z,71.48
2022-08-18T09:41:49.078Z,71.04
2022-08-18T09:44:50.955Z,68.00
2022-08-18T09:47:52.290Z,66.30
2022-08-18T09:50:53.142Z,67.97
2022-08-18T09:53:53.555Z,66.13
2022-08-18T09:56:55.774Z,65.09
2022-08-18T09:59:59.233Z,66.24
2022-08-18T10:03:07.137Z,63.73
2022-08-18T10:05:38.988Z,65.74
2022-08-18T10:08:42.765Z,67.11
2022-08-18T10:11:32.069Z,67.15
2022-08-18T10:14:24.669Z,60.91
2022-08-18T10:19:57.310Z,59.71
2022-08-18T10:22:43.482Z,60.09
2022-08-18T10:25:22.813Z,58.04
2022-08-18T10:28:05.378Z,56.06
2022-08-18T10:31:06.489Z,60.74
2022-08-18T10:34:00.412Z,59.54
2022-08-18T10:36:46.598Z,60.78
2022-08-18T10:39:19.839Z,62.26
2022-08-18T10:41:58.017Z,61.15
2022-08-18T10:44:29.492Z,60.89
2022-08-18T10:47:01.155Z,61.07
2022-08-18T10:49:33.178Z,60.00
2022-08-18T10:52:46.309Z,57.19
2022-08-18T10:55:48.792Z,55.71
2022-08-18T10:58:30.349Z,58.19
2022-08-18T11:01:18.014Z,58.87
2022-08-18T11:07:08.473Z,53.32
2022-08-18T11:09:41.780Z,54.59
2022-08-18T11:12:13.632Z,54.40
2022-08-18T11:15:22.805Z,57.63
2022-08-18T11:18:03.112Z,58.50
2022-08-18T11:20:33.724Z,57.54
2022-08-18T11:23:04.298Z,59.48
2022-08-18T11:26:34.225Z,58.12
2022-08-18T11:29:26.902Z,59.25
2022-08-18T11:32:02.057Z,59.03
2022-08-18T11:34:38.503Z,56.32
2022-08-18T11:37:20.866Z,58.67
2022-08-18T11:39:51.833Z,59.31
2022-08-18T11:42:27.859Z,59.55
2022-08-18T11:45:05.700Z,59.58
2022-08-18T11:47:33.823Z,56.79
2022-08-18T11:50:12.053Z,58.38
2022-08-18T11:52:53.481Z,57.52
2022-08-18T11:55:30.088Z,55.57
2022-08-18T11:58:00.287Z,57.90
2022-08-18T12:00:55.226Z,58.95
2022-08-18T12:03:31.955Z,59.56
2022-08-18T12:06:10.868Z,59.03
2022-08-18T12:08:55.763Z,59.12
2022-08-18T12:11:29.171Z,58.21
2022-08-18T12:16:57.466Z,55.92
2022-08-18T12:19:30.778Z,54.86
2022-08-18T12:22:00.481Z,53.04
2022-08-18T12:24:36.961Z,54.90
2022-08-18T12:27:12.383Z,54.51
2022-08-18T12:32:49.192Z,53.98
2022-08-18T12:35:21.634Z,52.38
2022-08-18T12:38:00.354Z,54.45
2022-08-18T12:40:31.882Z,52.75
2022-08-18T12:43:00.023Z,52.43
2022-08-18T12:45:30.917Z,50.18
2022-08-18T12:48:04.027Z,50.50
2022-08-18T12:50:36.162Z,51.07
2022-08-18T12:53:05.776Z,51.47
2022-08-18T12:55:43.464Z,50.32
2022-08-18T12:58:12.219Z,49.97
2022-08-18T13:00:42.638Z,49.79
2022-08-18T13:03:11.928Z,50.25
2022-08-18T13:05:39.947Z,51.90
2022-08-18T13:08:30.540Z,49.97
2022-08-18T13:11:14.736Z,51.49
2022-08-18T13:13:44.409Z,52.09
2022-08-18T13:16:16.601Z,53.00
2022-08-18T13:19:02.932Z,53.93
2022-08-18T13:21:39.142Z,51.85
2022-08-18T13:24:10.280Z,52.26
2022-08-18T13:26:45.663Z,50.26
2022-08-18T13:29:15.472Z,50.70
2022-08-18T13:31:55.718Z,48.87
2022-08-18T13:34:29.783Z,47.61
2022-08-18T13:36:58.985Z,48.72
2022-08-18T13:39:33.617Z,49.53
2022-08-18T13:42:28.407Z,49.06
2022-08-18T13:44:53.331Z,50.34
2022-08-18T13:47:22.164Z,50.81
2022-08-18T13:49:58.984Z,51.07
2022-08-18T13:52:44.439Z,51.17
2022-08-18T13:55:16.799Z,49.10
2022-08-18T13:57:53.592Z,48.77
2022-08-18T14:00:30.740Z,50.23
2022-08-18T14:03:02.206Z,51.29
2022-08-18T14:05:50.962Z,52.14
2022-08-18T14:08:19.944Z,49.43
2022-08-18T14:10:50.685Z,47.89
2022-08-18T14:13:20.693Z,47.46
2022-08-18T14:15:54.771Z,48.12
2022-08-18T14:18:28.655Z,48.49
2022-08-18T14:21:16.209Z,47.91
2022-08-18T14:24:00.709Z,48.17
2022-08-18T14:26:46.333Z,50.34
2022-08-18T14:29:46.454Z,50.16
2022-08-18T14:32:09.339Z,49.46
2022-08-18T14:34:50.720Z,49.01
2022-08-18T14:37:20.848Z,49.04
2022-08-18T14:39:53.739Z,47.83
2022-08-18T14:42:41.109Z,47.80
2022-08-18T14:45:26.387Z,47.75
2022-08-18T14:47:59.233Z,48.22
2022-08-18T14:50:27.548Z,49.23
2022-08-18T14:52:57.108Z,47.11
2022-08-18T14:55:27.617Z,48.78
2022-08-18T14:57:59.483Z,48.86
2022-08-18T15:00:29.011Z,48.17
2022-08-18T15:02:59.809Z,47.96
2022-08-18T15:05:33.706Z,47.11
2022-08-18T15:08:09.022Z,48.09
2022-08-18T15:10:39.017Z,48.52
2022-08-18T15:13:07.269Z,47.84
2022-08-18T15:15:42.327Z,46.20
2022-08-18T15:18:22.707Z,48.98
2022-08-18T15:21:10.306Z,47.86
2022-08-18T15:24:19.523Z,48.60
2022-08-18T15:26:51.418Z,47.77
2022-08-18T15:29:22.537Z,48.24
2022-08-18T15:31:59.838Z,48.07
2022-08-18T15:34:33.128Z,47.73
2022-08-18T15:37:14.421Z,47.79
2022-08-18T15:39:44.170Z,50.14
2022-08-18T15:42:14.145Z,48.15
2022-08-18T15:44:44.811Z,47.65
2022-08-18T15:47:12.679Z,46.74
2022-08-18T15:49:40.612Z,47.17
2022-08-18T15:52:12.631Z,46.41
2022-08-18T15:54:42.347Z,48.80
2022-08-18T15:57:36.023Z,47.69
2022-08-18T16:00:05.903Z,48.09
2022-08-18T16:02:40.114Z,47.64
2022-08-18T16:05:10.433Z,47.92
2022-08-18T16:07:45.031Z,47.43
2022-08-18T16:10:13.654Z,48.38
2022-08-18T16:12:45.685Z,48.29
2022-08-18T16:15:15.359Z,48.39
2022-08-18T16:17:49.620Z,47.45
2022-08-18T16:20:18.628Z,48.17
2022-08-18T16:22:46.994Z,49.55
2022-08-18T16:25:16.425Z,47.64
2022-08-18T16:27:47.781Z,47.36
2022-08-18T16:30:20.658Z,47.36
2022-08-18T16:32:48.882Z,47.64
2022-08-18T16:35:20.058Z,47.07
2022-08-18T16:37:49.651Z,47.12
2022-08-18T16:40:19.130Z,47.42
2022-08-18T16:42:54.142Z,46.91
2022-08-18T16:45:22.697Z,46.96
2022-08-18T16:47:50.636Z,50.01
2022-08-18T16:50:19.333Z,51.39
2022-08-18T16:52:47.304Z,51.01
2022-08-18T16:55:15.205Z,51.91
2022-08-18T16:58:02.386Z,51.72
2022-08-18T17:00:55.225Z,52.89
2022-08-18T17:03:41.311Z,53.07
2022-08-18T17:06:11.831Z,54.54
2022-08-18T17:08:41.006Z,54.71
2022-08-18T17:11:11.693Z,55.16
2022-08-18T17:13:43.240Z,54.95
2022-08-18T17:16:13.161Z,56.05
2022-08-18T17:18:42.435Z,56.90
2022-08-18T17:21:13.791Z,55.91
2022-08-18T17:23:44.869Z,55.49
2022-08-18T17:26:18.492Z,55.52
2022-08-18T17:28:53.722Z,55.90
2022-08-18T17:31:25.988Z,55.90
2022-08-18T17:33:58.440Z,55.96
2022-08-18T17:36:34.596Z,56.19
2022-08-18T17:39:06.229Z,57.31
2022-08-18T17:41:57.105Z,56.24
2022-08-18T17:44:28.650Z,56.74
2022-08-18T17:47:03.727Z,57.23
2022-08-18T17:50:26.969Z,58.77
2022-08-18T17:52:47.118Z,58.03
2022-08-18T17:55:24.904Z,59.46
2022-08-18T17:57:58.653Z,59.42
2022-08-18T18:00:28.064Z,59.77
2022-08-18T18:02:58.262Z,60.83
2022-08-18T18:05:36.416Z,61.67
2022-08-18T18:08:05.204Z,61.19
2022-08-18T18:11:02.265Z,59.99
2022-08-18T18:13:32.382Z,61.10
2022-08-18T18:16:02.363Z,62.56
2022-08-18T18:18:38.118Z,63.73
2022-08-18T18:21:21.546Z,63.04
2022-08-18T18:23:54.111Z,61.48
2022-08-18T18:26:29.323Z,62.13
2022-08-18T18:29:29.127Z,63.19
2022-08-18T18:32:01.677Z,63.43
2022-08-18T18:34:39.405Z,62.88
2022-08-18T18:37:25.145Z,63.24
2022-08-18T18:39:58.003Z,62.94
2022-08-18T18:42:28.275Z,62.93
2022-08-18T18:44:59.089Z,63.72
2022-08-18T18:47:54.523Z,62.97
2022-08-18T18:50:31.079Z,62.72
2022-08-18T18:53:10.876Z,63.00
2022-08-18T18:55:44.867Z,61.80
2022-08-18T18:58:22.509Z,62.50
2022-08-18T19:00:55.930Z,63.90
2022-08-18T19:03:32.174Z,62.81
2022-08-18T19:06:13.989Z,62.67
2022-08-18T19:08:51.939Z,62.36
2022-08-18T19:11:29.016Z,63.47
2022-08-18T19:14:02.996Z,63.13
2022-08-18T19:16:41.228Z,62.99
2022-08-18T19:19:37.896Z,63.99
2022-08-18T19:22:14.968Z,61.81
2022-08-18T19:24:53.490Z,60.98
2022-08-18T19:27:28.053Z,61.65
2022-08-18T19:30:01.637Z,63.11
2022-08-18T19:32:42.774Z,62.58
2022-08-18T19:35:16.244Z,62.33
2022-08-18T19:38:09.345Z,62.24
2022-08-18T19:40:45.582Z,62.05
2022-08-18T19:43:27.547Z,61.78
2022-08-18T19:46:00.743Z,60.22
2022-08-18T19:48:35.904Z,61.38
2022-08-18T19:51:10.508Z,61.43
2022-08-18T19:53:55.144Z,60.51
2022-08-18T19:56:42.041Z,60.05
2022-08-18T19:59:34.124Z,60.25
2022-08-18T20:02:17.806Z,59.88
2022-08-18T20:05:14.316Z,59.86
2022-08-18T20:07:57.481Z,59.51
2022-08-18T20:10:53.223Z,59.40
2022-08-18T20:13:33.334Z,59.09
2022-08-18T20:16:14.184Z,59.48
2022-08-18T20:18:44.822Z,59.32
2022-08-18T20:21:47.770Z,59.20
2022-08-18T20:24:39.629Z,59.66
2022-08-18T20:27:35.474Z,59.34
2022-08-18T20:30:31.984Z,59.43
2022-08-18T20:33:19.925Z,59.48
2022-08-18T20:36:02.308Z,59.90
2022-08-18T20:38:35.145Z,59.46
2022-08-18T20:41:39.265Z,59.18
2022-08-18T20:44:45.492Z,59.81
2022-08-18T20:47:55.657Z,59.73
2022-08-18T20:50:47.618Z,59.80
2022-08-18T20:53:32.769Z,60.75
2022-08-18T20:56:31.295Z,60.21
2022-08-18T20:59:08.679Z,59.98
2022-08-18T21:01:39.103Z,60.33
2022-08-18T21:04:08.209Z,60.37
2022-08-18T21:06:41.971Z,59.16
2022-08-18T21:09:10.506Z,59.35
2022-08-18T21:11:42.992Z,59.07
2022-08-18T21:14:12.915Z,59.09
2022-08-18T21:16:45.042Z,59.13
2022-08-18T21:19:20.610Z,59.40
2022-08-18T21:21:51.675Z,59.57
2022-08-18T21:24:23.675Z,59.73
2022-08-18T21:26:56.697Z,59.91
2022-08-18T21:29:24.904Z,60.11
2022-08-18T21:32:07.997Z,60.34
2022-08-18T21:34:44.391Z,60.09
2022-08-18T21:37:15.102Z,60.27
2022-08-18T21:39:55.178Z,60.01
2022-08-18T21:42:27.954Z,60.23
2022-08-18T21:44:57.429Z,60.53
2022-08-18T21:47:31.721Z,61.81
2022-08-18T21:50:09.336Z,61.12
2022-08-18T21:52:40.578Z,60.66
2022-08-18T21:55:23.311Z,60.41
2022-08-18T21:58:02.670Z,60.26
2022-08-18T22:00:33.868Z,60.67
2022-08-18T22:03:28.347Z,60.89
2022-08-18T22:06:03.170Z,61.23
2022-08-18T22:08:35.070Z,61.24
2022-08-18T22:11:51.901Z,61.31
2022-08-18T22:14:36.240Z,60.86
2022-08-18T22:17:33.771Z,60.70
2022-08-18T22:20:48.627Z,60.83
2022-08-18T22:23:55.309Z,62.10
2022-08-18T22:26:27.207Z,60.73
2022-08-18T22:29:00.782Z,60.70
2022-08-18T22:31:31.467Z,61.19
2022-08-18T22:34:03.253Z,61.86
2022-08-18T22:36:35.477Z,61.53
2022-08-18T22:39:05.919Z,61.36
2022-08-18T22:41:36.864Z,61.72
2022-08-18T22:44:05.529Z,61.64
2022-08-18T22:46:34.144Z,61.45
2022-08-18T22:49:03.245Z,61.33
2022-08-18T22:51:33.335Z,62.44
2022-08-18T22:54:01.231Z,63.68
2022-08-18T22:56:34.712Z,61.97
2022-08-18T22:59:13.669Z,61.69
2022-08-18T23:01:46.150Z,61.54
2022-08-18T23:04:15.841Z,63.10
2022-08-18T23:06:52.031Z,62.40
2022-08-18T23:09:22.649Z,61.94
2022-08-18T23:11:53.385Z,62.64
2022-08-18T23:14:22.233Z,62.12
2022-08-18T23:16:50.397Z,61.88
2022-08-18T23:19:20.232Z,62.34
2022-08-18T23:21:50.912Z,62.58
2022-08-18T23:24:21.042Z,62.35
2022-08-18T23:26:50.027Z,62.85
2022-08-18T23:29:21.406Z,62.64
2022-08-18T23:31:51.380Z,64.02
2022-08-18T23:34:21.509Z,63.18
2022-08-18T23:36:54.713Z,62.71
2022-08-18T23:39:22.916Z,61.90
2022-08-18T23:41:51.125Z,63.02
2022-08-18T23:44:20.631Z,62.68
2022-08-18T23:46:52.499Z,63.17
2022-08-18T23:49:23.347Z,63.02
2022-08-18T23:51:55.945Z,62.92
2022-08-18T23:54:29.127Z,62.97
2022-08-18T23:56:57.093Z,63.91
2022-08-18T23:59:28.137Z,63.58
